Rowan, Iowa
Current Conditions -  °F | °C
As of 1:35 AM on Saturday 29 Nov 2014 (Local Time) from KCAV Reporting Station
Haze Haze  
Wind Chill: 13°   Ceiling: Unl
Heat Index: 27°   Visibility: 6mi
Dew Point: 27°   Wind: 18mph
Humidity: 100%   Direction: 130°SE
Pressure: 29.58"   Gusts: NA
Location:  42.74°N, 93.55°W
Report Text: KCAV 290735Z AUTO 13016KT 6SM BR CLR M03/M03 A2958 RMK AO2
Loading
Personal Weather Stations






























Interactive Weather Map New forecast layout! Learn more

10-Day Weather Forecast

Advertisements
Track Severe Weather on mobile